SWA1091 KDEN-KSLC
Flight info
| Callsign | SWA1091 |
|---|---|
| Flight time | 1h 10m |
| Altitude | 36000 |
| Route | ZIMMR4 CHNGY EKR PITTT2 |
| Aircraft | B738/M-SDE2E3FGHIRWXY/LB1 |
Departure
| Time | 2026-05-07 14:48 |
|---|---|
| Airport | Denver International Airport (KDEN) |
Arrival
| Time | 2026-05-07 15:58 |
|---|---|
| Airport | Salt Lake City International Airport (KSLC) |
| Time | Latitude | Longitude | Altitude | Speed | Heading |
|---|---|---|---|---|---|
| 2026-05-07 14:21 | 39.86356 | -104.67307 | 5390 ft | 0 kts | 180° |
| 2026-05-07 14:39 | 39.86360 | -104.67307 | 5390 ft | 2 kts | 180° |
| 2026-05-07 14:40 | 39.86374 | -104.67307 | 5389 ft | 0 kts | 180° |
| 2026-05-07 14:40 | 39.86385 | -104.67308 | 5389 ft | 2 kts | 165° |
| 2026-05-07 14:40 | 39.86399 | -104.67316 | 5389 ft | 2 kts | 141° |
| 2026-05-07 14:40 | 39.86409 | -104.67331 | 5388 ft | 2 kts | 117° |
| 2026-05-07 14:41 | 39.86414 | -104.67350 | 5387 ft | 1 kts | 95° |
| 2026-05-07 14:41 | 39.86414 | -104.67358 | 5386 ft | 1 kts | 87° |
| 2026-05-07 14:41 | 39.86414 | -104.67362 | 5386 ft | 0 kts | 89° |
| 2026-05-07 14:43 | 39.86414 | -104.67343 | 5387 ft | 6 kts | 90° |
| 2026-05-07 14:43 | 39.86412 | -104.67253 | 5391 ft | 13 kts | 92° |
| 2026-05-07 14:44 | 39.86411 | -104.67095 | 5397 ft | 20 kts | 90° |
| 2026-05-07 14:44 | 39.86410 | -104.66891 | 5403 ft | 23 kts | 90° |
| 2026-05-07 14:44 | 39.86408 | -104.66695 | 5407 ft | 19 kts | 90° |
| 2026-05-07 14:44 | 39.86427 | -104.66583 | 5408 ft | 10 kts | 45° |
| 2026-05-07 14:45 | 39.86492 | -104.66547 | 5407 ft | 9 kts | 57° |
| 2026-05-07 14:45 | 39.86501 | -104.66459 | 5408 ft | 13 kts | 90° |
| 2026-05-07 14:45 | 39.86466 | -104.66345 | 5410 ft | 13 kts | 166° |
| 2026-05-07 14:45 | 39.86381 | -104.66342 | 5413 ft | 12 kts | 181° |
| 2026-05-07 14:46 | 39.86273 | -104.66345 | 5417 ft | 17 kts | 180° |
| 2026-05-07 14:46 | 39.86165 | -104.66344 | 5422 ft | 13 kts | 180° |
| 2026-05-07 14:46 | 39.86115 | -104.66280 | 5421 ft | 11 kts | 96° |
| 2026-05-07 14:46 | 39.86106 | -104.66182 | 5420 ft | 10 kts | 85° |
| 2026-05-07 14:47 | 39.86105 | -104.66141 | 5418 ft | 6 kts | 92° |
| 2026-05-07 14:47 | 39.86080 | -104.66020 | 5414 ft | 16 kts | 148° |
| 2026-05-07 14:47 | 39.85978 | -104.66017 | 5416 ft | 15 kts | 181° |
| 2026-05-07 14:47 | 39.85757 | -104.66022 | 5416 ft | 62 kts | 181° |
| 2026-05-07 14:48 | 39.85089 | -104.66029 | 5408 ft | 129 kts | 180° |
| 2026-05-07 14:48 | 39.83996 | -104.66038 | 5488 ft | 177 kts | 181° |
| 2026-05-07 14:48 | 39.82794 | -104.66053 | 6384 ft | 173 kts | 187° |
| 2026-05-07 14:48 | 39.81708 | -104.66588 | 7025 ft | 173 kts | 220° |
| 2026-05-07 14:49 | 39.80922 | -104.67815 | 7544 ft | 184 kts | 242° |
| 2026-05-07 14:49 | 39.80538 | -104.69456 | 8000 ft | 200 kts | 265° |
| 2026-05-07 14:49 | 39.80790 | -104.71287 | 8435 ft | 219 kts | 297° |
| 2026-05-07 14:49 | 39.81722 | -104.72903 | 9021 ft | 231 kts | 311° |
| 2026-05-07 14:50 | 39.82829 | -104.74489 | 9536 ft | 248 kts | 312° |
| 2026-05-07 14:50 | 39.84015 | -104.76241 | 9950 ft | 269 kts | 311° |
| 2026-05-07 14:50 | 39.85251 | -104.78127 | 10010 ft | 281 kts | 310° |
| 2026-05-07 14:50 | 39.86527 | -104.80099 | 9980 ft | 280 kts | 310° |
| 2026-05-07 14:51 | 39.87756 | -104.82005 | 9979 ft | 276 kts | 310° |
| 2026-05-07 14:51 | 39.88994 | -104.83923 | 9974 ft | 276 kts | 310° |
| 2026-05-07 14:51 | 39.90245 | -104.85854 | 9971 ft | 277 kts | 310° |
| 2026-05-07 14:51 | 39.91475 | -104.87752 | 9970 ft | 276 kts | 310° |
| 2026-05-07 14:52 | 39.92645 | -104.89753 | 9970 ft | 276 kts | 302° |
| 2026-05-07 14:52 | 39.93321 | -104.92086 | 10021 ft | 289 kts | 279° |
| 2026-05-07 14:52 | 39.93401 | -104.94707 | 11026 ft | 288 kts | 272° |
| 2026-05-07 14:52 | 39.93409 | -104.97292 | 11931 ft | 289 kts | 273° |
| 2026-05-07 14:53 | 39.93442 | -104.99907 | 12722 ft | 293 kts | 274° |
| 2026-05-07 14:53 | 39.93473 | -105.01473 | 13178 ft | 296 kts | 275° |
| 2026-05-07 14:53 | 39.93533 | -105.04141 | 14014 ft | 297 kts | 276° |
| 2026-05-07 14:53 | 39.93598 | -105.06808 | 14843 ft | 298 kts | 276° |
| 2026-05-07 14:54 | 39.93664 | -105.09494 | 15640 ft | 300 kts | 276° |
| 2026-05-07 14:54 | 39.93728 | -105.12241 | 16394 ft | 303 kts | 275° |
| 2026-05-07 14:54 | 39.93788 | -105.14960 | 17153 ft | 305 kts | 276° |
| 2026-05-07 14:54 | 39.93851 | -105.17757 | 17680 ft | 315 kts | 276° |
| 2026-05-07 14:55 | 39.93919 | -105.20638 | 18105 ft | 327 kts | 276° |
| 2026-05-07 14:55 | 39.94015 | -105.23660 | 18548 ft | 338 kts | 277° |
| 2026-05-07 14:55 | 39.94218 | -105.26756 | 18815 ft | 354 kts | 279° |
| 2026-05-07 14:55 | 39.94500 | -105.30014 | 19189 ft | 366 kts | 280° |
| 2026-05-07 14:56 | 39.94791 | -105.33297 | 19744 ft | 373 kts | 279° |
| 2026-05-07 14:56 | 39.95070 | -105.36620 | 20618 ft | 370 kts | 279° |
| 2026-05-07 14:56 | 39.95344 | -105.40006 | 21125 ft | 378 kts | 279° |
| 2026-05-07 14:56 | 39.95610 | -105.43385 | 21840 ft | 378 kts | 279° |
| 2026-05-07 14:57 | 39.95879 | -105.46802 | 22422 ft | 383 kts | 279° |
| 2026-05-07 14:57 | 39.96145 | -105.50234 | 23114 ft | 384 kts | 279° |
| 2026-05-07 14:57 | 39.96417 | -105.53738 | 23619 ft | 390 kts | 279° |
| 2026-05-07 14:57 | 39.96660 | -105.56892 | 24400 ft | 387 kts | 279° |
| 2026-05-07 14:58 | 39.96816 | -105.58920 | 24705 ft | 390 kts | 278° |
| 2026-05-07 14:58 | 39.97085 | -105.62450 | 25142 ft | 397 kts | 279° |
| 2026-05-07 14:58 | 39.97357 | -105.66003 | 25865 ft | 396 kts | 278° |
| 2026-05-07 14:58 | 39.97596 | -105.69559 | 26575 ft | 395 kts | 277° |
| 2026-05-07 14:59 | 39.97784 | -105.73070 | 27293 ft | 394 kts | 277° |
| 2026-05-07 14:59 | 39.97958 | -105.76686 | 27629 ft | 401 kts | 277° |
| 2026-05-07 14:59 | 39.98126 | -105.80270 | 28124 ft | 403 kts | 276° |
| 2026-05-07 14:59 | 39.98300 | -105.83959 | 28584 ft | 406 kts | 276° |
| 2026-05-07 15:00 | 39.98472 | -105.87615 | 29075 ft | 409 kts | 276° |
| 2026-05-07 15:00 | 39.98647 | -105.91337 | 29489 ft | 412 kts | 277° |
| 2026-05-07 15:00 | 39.98824 | -105.95027 | 29923 ft | 414 kts | 277° |
| 2026-05-07 15:00 | 39.99006 | -105.98804 | 30316 ft | 417 kts | 276° |
| 2026-05-07 15:01 | 39.99188 | -106.02579 | 30661 ft | 422 kts | 277° |
| 2026-05-07 15:01 | 39.99371 | -106.06374 | 31100 ft | 424 kts | 277° |
| 2026-05-07 15:01 | 39.99550 | -106.10176 | 31651 ft | 423 kts | 277° |
| 2026-05-07 15:01 | 39.99728 | -106.14013 | 32324 ft | 420 kts | 277° |
| 2026-05-07 15:02 | 39.99902 | -106.17786 | 32961 ft | 417 kts | 277° |
| 2026-05-07 15:02 | 40.00071 | -106.21523 | 33547 ft | 415 kts | 278° |
| 2026-05-07 15:02 | 40.00239 | -106.25254 | 34117 ft | 414 kts | 278° |
| 2026-05-07 15:02 | 40.00410 | -106.29009 | 34680 ft | 412 kts | 278° |
| 2026-05-07 15:03 | 40.00575 | -106.32695 | 35270 ft | 410 kts | 278° |
| 2026-05-07 15:03 | 40.00740 | -106.36447 | 35814 ft | 408 kts | 278° |
| 2026-05-07 15:03 | 40.00908 | -106.40247 | 36285 ft | 407 kts | 278° |
| 2026-05-07 15:03 | 40.01082 | -106.44100 | 36319 ft | 414 kts | 278° |
| 2026-05-07 15:04 | 40.01427 | -106.51807 | 36321 ft | 419 kts | 278° |
| 2026-05-07 15:04 | 40.01761 | -106.59478 | 36319 ft | 418 kts | 278° |
| 2026-05-07 15:05 | 40.02085 | -106.67052 | 36305 ft | 419 kts | 278° |
| 2026-05-07 15:05 | 40.02403 | -106.74660 | 36283 ft | 419 kts | 278° |
| 2026-05-07 15:06 | 40.02717 | -106.82262 | 36271 ft | 420 kts | 278° |
| 2026-05-07 15:06 | 40.03024 | -106.89803 | 36269 ft | 419 kts | 278° |
| 2026-05-07 15:07 | 40.03329 | -106.97399 | 36261 ft | 419 kts | 278° |
| 2026-05-07 15:07 | 40.03631 | -107.04982 | 36269 ft | 419 kts | 278° |
| 2026-05-07 15:08 | 40.03930 | -107.12534 | 36272 ft | 420 kts | 278° |
| 2026-05-07 15:08 | 40.04225 | -107.20130 | 36273 ft | 419 kts | 278° |
| 2026-05-07 15:09 | 40.04516 | -107.27756 | 36279 ft | 423 kts | 278° |
| 2026-05-07 15:09 | 40.04798 | -107.35349 | 36286 ft | 421 kts | 278° |
| 2026-05-07 15:10 | 40.05075 | -107.42983 | 36295 ft | 420 kts | 278° |
| 2026-05-07 15:10 | 40.05342 | -107.50547 | 36291 ft | 421 kts | 278° |
| 2026-05-07 15:11 | 40.05605 | -107.58124 | 36289 ft | 411 kts | 278° |
| 2026-05-07 15:11 | 40.05850 | -107.65458 | 36289 ft | 407 kts | 278° |
| 2026-05-07 15:12 | 40.06107 | -107.72925 | 36267 ft | 410 kts | 278° |
| 2026-05-07 15:12 | 40.06352 | -107.80341 | 36215 ft | 410 kts | 278° |
| 2026-05-07 15:13 | 40.06593 | -107.87803 | 36174 ft | 410 kts | 278° |
| 2026-05-07 15:13 | 40.06838 | -107.95216 | 36170 ft | 409 kts | 279° |
| 2026-05-07 15:14 | 40.07170 | -108.02637 | 36216 ft | 411 kts | 279° |
| 2026-05-07 15:14 | 40.07523 | -108.10003 | 36235 ft | 407 kts | 279° |
| 2026-05-07 15:15 | 40.07861 | -108.17355 | 36234 ft | 404 kts | 279° |
| 2026-05-07 15:15 | 40.08190 | -108.24662 | 36231 ft | 405 kts | 279° |
| 2026-05-07 15:16 | 40.08515 | -108.31973 | 36236 ft | 403 kts | 279° |
| 2026-05-07 15:16 | 40.08833 | -108.39267 | 36220 ft | 405 kts | 279° |
| 2026-05-07 15:17 | 40.09141 | -108.46590 | 36222 ft | 405 kts | 279° |
| 2026-05-07 15:17 | 40.09444 | -108.53880 | 36214 ft | 405 kts | 279° |
| 2026-05-07 15:18 | 40.09745 | -108.61192 | 36212 ft | 406 kts | 279° |
| 2026-05-07 15:18 | 40.10043 | -108.68547 | 36219 ft | 408 kts | 279° |
| 2026-05-07 15:19 | 40.10334 | -108.75909 | 36211 ft | 407 kts | 279° |
| 2026-05-07 15:19 | 40.10622 | -108.83292 | 36212 ft | 408 kts | 279° |
| 2026-05-07 15:20 | 40.10905 | -108.90668 | 36214 ft | 409 kts | 279° |
| 2026-05-07 15:20 | 40.11180 | -108.98019 | 36211 ft | 407 kts | 279° |
| 2026-05-07 15:21 | 40.11458 | -109.05466 | 36208 ft | 409 kts | 279° |
| 2026-05-07 15:21 | 40.11724 | -109.12850 | 36212 ft | 406 kts | 279° |
| 2026-05-07 15:22 | 40.11992 | -109.20245 | 36212 ft | 409 kts | 279° |
| 2026-05-07 15:22 | 40.12254 | -109.27654 | 36212 ft | 409 kts | 279° |
| 2026-05-07 15:23 | 40.12513 | -109.35088 | 36216 ft | 410 kts | 279° |
| 2026-05-07 15:23 | 40.12764 | -109.42500 | 36217 ft | 410 kts | 279° |
| 2026-05-07 15:24 | 40.13009 | -109.49877 | 36220 ft | 409 kts | 279° |
| 2026-05-07 15:24 | 40.13251 | -109.57294 | 36219 ft | 408 kts | 279° |
| 2026-05-07 15:25 | 40.13489 | -109.64688 | 36219 ft | 410 kts | 279° |
| 2026-05-07 15:25 | 40.13722 | -109.72129 | 36219 ft | 410 kts | 278° |
| 2026-05-07 15:26 | 40.13950 | -109.79559 | 36217 ft | 410 kts | 278° |
| 2026-05-07 15:26 | 40.14176 | -109.87078 | 36218 ft | 412 kts | 278° |
| 2026-05-07 15:27 | 40.14395 | -109.94541 | 36217 ft | 410 kts | 278° |
| 2026-05-07 15:27 | 40.14610 | -110.01968 | 36221 ft | 412 kts | 278° |
| 2026-05-07 15:28 | 40.14823 | -110.09476 | 36218 ft | 413 kts | 278° |
| 2026-05-07 15:28 | 40.14969 | -110.16939 | 36229 ft | 412 kts | 277° |
| 2026-05-07 15:29 | 40.14900 | -110.24456 | 36234 ft | 415 kts | 276° |
| 2026-05-07 15:29 | 40.14794 | -110.31970 | 36241 ft | 414 kts | 275° |
| 2026-05-07 15:30 | 40.14703 | -110.39516 | 36246 ft | 416 kts | 276° |
| 2026-05-07 15:30 | 40.14621 | -110.46993 | 36271 ft | 414 kts | 276° |
| 2026-05-07 15:31 | 40.14540 | -110.54526 | 36163 ft | 412 kts | 276° |
| 2026-05-07 15:31 | 40.14497 | -110.58242 | 35767 ft | 409 kts | 276° |
| 2026-05-07 15:31 | 40.14455 | -110.61970 | 35171 ft | 414 kts | 276° |
| 2026-05-07 15:32 | 40.14417 | -110.65738 | 34493 ft | 419 kts | 275° |
| 2026-05-07 15:32 | 40.14376 | -110.69520 | 33794 ft | 421 kts | 275° |
| 2026-05-07 15:32 | 40.14333 | -110.73315 | 33077 ft | 421 kts | 275° |
| 2026-05-07 15:32 | 40.14288 | -110.77117 | 32335 ft | 422 kts | 274° |
| 2026-05-07 15:33 | 40.14240 | -110.80935 | 31566 ft | 423 kts | 274° |
| 2026-05-07 15:33 | 40.14190 | -110.84802 | 30768 ft | 425 kts | 274° |
| 2026-05-07 15:33 | 40.14138 | -110.88629 | 30197 ft | 421 kts | 274° |
| 2026-05-07 15:33 | 40.14085 | -110.92439 | 29623 ft | 424 kts | 274° |
| 2026-05-07 15:34 | 40.14034 | -110.96283 | 29043 ft | 428 kts | 274° |
| 2026-05-07 15:34 | 40.13979 | -111.00177 | 28411 ft | 427 kts | 274° |
| 2026-05-07 15:34 | 40.13923 | -111.04032 | 27791 ft | 429 kts | 274° |
| 2026-05-07 15:34 | 40.13866 | -111.07894 | 27132 ft | 430 kts | 274° |
| 2026-05-07 15:35 | 40.13804 | -111.11803 | 26472 ft | 427 kts | 274° |
| 2026-05-07 15:35 | 40.13740 | -111.15627 | 25842 ft | 424 kts | 274° |
| 2026-05-07 15:35 | 40.13676 | -111.19463 | 25197 ft | 421 kts | 274° |
| 2026-05-07 15:35 | 40.13611 | -111.23268 | 24541 ft | 418 kts | 274° |
| 2026-05-07 15:36 | 40.13546 | -111.26989 | 23909 ft | 415 kts | 274° |
| 2026-05-07 15:36 | 40.13480 | -111.30750 | 23270 ft | 411 kts | 274° |
| 2026-05-07 15:36 | 40.13414 | -111.34448 | 22630 ft | 408 kts | 274° |
| 2026-05-07 15:36 | 40.13348 | -111.38089 | 22007 ft | 398 kts | 273° |
| 2026-05-07 15:37 | 40.13280 | -111.41642 | 21397 ft | 387 kts | 273° |
| 2026-05-07 15:37 | 40.13214 | -111.45109 | 20787 ft | 378 kts | 273° |
| 2026-05-07 15:37 | 40.13150 | -111.48460 | 20157 ft | 369 kts | 273° |
| 2026-05-07 15:37 | 40.13159 | -111.51767 | 19586 ft | 357 kts | 277° |
| 2026-05-07 15:38 | 40.13474 | -111.54870 | 19220 ft | 339 kts | 287° |
| 2026-05-07 15:38 | 40.14172 | -111.57736 | 19192 ft | 331 kts | 294° |
| 2026-05-07 15:38 | 40.15109 | -111.60544 | 19178 ft | 338 kts | 297° |
| 2026-05-07 15:38 | 40.16125 | -111.63305 | 19171 ft | 340 kts | 298° |
| 2026-05-07 15:39 | 40.17174 | -111.66097 | 19168 ft | 340 kts | 298° |
| 2026-05-07 15:39 | 40.18215 | -111.68866 | 19168 ft | 340 kts | 298° |
| 2026-05-07 15:39 | 40.19243 | -111.71616 | 19165 ft | 340 kts | 297° |
| 2026-05-07 15:39 | 40.20277 | -111.74400 | 19156 ft | 339 kts | 298° |
| 2026-05-07 15:40 | 40.21305 | -111.77181 | 19157 ft | 340 kts | 297° |
| 2026-05-07 15:40 | 40.22332 | -111.79967 | 19158 ft | 339 kts | 297° |
| 2026-05-07 15:40 | 40.23356 | -111.82752 | 19135 ft | 339 kts | 298° |
| 2026-05-07 15:40 | 40.24373 | -111.85523 | 18795 ft | 344 kts | 297° |
| 2026-05-07 15:41 | 40.25412 | -111.88357 | 18197 ft | 344 kts | 297° |
| 2026-05-07 15:41 | 40.26480 | -111.91118 | 17605 ft | 343 kts | 301° |
| 2026-05-07 15:41 | 40.27829 | -111.93642 | 17095 ft | 337 kts | 313° |
| 2026-05-07 15:41 | 40.29586 | -111.95583 | 17018 ft | 325 kts | 325° |
| 2026-05-07 15:42 | 40.31514 | -111.97148 | 17032 ft | 327 kts | 328° |
| 2026-05-07 15:42 | 40.33488 | -111.98633 | 17054 ft | 328 kts | 329° |
| 2026-05-07 15:42 | 40.35471 | -112.00105 | 17047 ft | 329 kts | 329° |
| 2026-05-07 15:42 | 40.37453 | -112.01581 | 17055 ft | 329 kts | 329° |
| 2026-05-07 15:43 | 40.39432 | -112.03055 | 17049 ft | 329 kts | 329° |
| 2026-05-07 15:43 | 40.41521 | -112.04397 | 16821 ft | 332 kts | 336° |
| 2026-05-07 15:43 | 40.43725 | -112.05248 | 16464 ft | 333 kts | 346° |
| 2026-05-07 15:43 | 40.45998 | -112.05692 | 15994 ft | 333 kts | 351° |
| 2026-05-07 15:44 | 40.48316 | -112.05977 | 15470 ft | 333 kts | 352° |
| 2026-05-07 15:44 | 40.50628 | -112.06220 | 14918 ft | 333 kts | 352° |
| 2026-05-07 15:44 | 40.52905 | -112.06471 | 14386 ft | 332 kts | 352° |
| 2026-05-07 15:44 | 40.55196 | -112.06744 | 13860 ft | 330 kts | 352° |
| 2026-05-07 15:45 | 40.57465 | -112.07034 | 13340 ft | 329 kts | 351° |
| 2026-05-07 15:45 | 40.59740 | -112.07332 | 12820 ft | 327 kts | 351° |
| 2026-05-07 15:45 | 40.62014 | -112.07636 | 12296 ft | 326 kts | 351° |
| 2026-05-07 15:45 | 40.64239 | -112.07928 | 12028 ft | 318 kts | 351° |
| 2026-05-07 15:46 | 40.68649 | -112.08450 | 12003 ft | 320 kts | 352° |
| 2026-05-07 15:46 | 40.70860 | -112.08700 | 11998 ft | 320 kts | 352° |
| 2026-05-07 15:46 | 40.73085 | -112.08954 | 11996 ft | 320 kts | 352° |
| 2026-05-07 15:47 | 40.75287 | -112.09208 | 11992 ft | 320 kts | 351° |
| 2026-05-07 15:47 | 40.77498 | -112.09467 | 11996 ft | 321 kts | 351° |
| 2026-05-07 15:47 | 40.79733 | -112.09731 | 11784 ft | 324 kts | 351° |
| 2026-05-07 15:47 | 40.81994 | -112.10001 | 11240 ft | 325 kts | 351° |
| 2026-05-07 15:48 | 40.84216 | -112.10264 | 11016 ft | 314 kts | 351° |
| 2026-05-07 15:48 | 40.86309 | -112.10511 | 10994 ft | 297 kts | 351° |
| 2026-05-07 15:48 | 40.88326 | -112.10751 | 10943 ft | 282 kts | 351° |
| 2026-05-07 15:48 | 40.90271 | -112.10989 | 10682 ft | 277 kts | 351° |
| 2026-05-07 15:49 | 40.92157 | -112.11224 | 10355 ft | 272 kts | 350° |
| 2026-05-07 15:49 | 40.94037 | -112.11457 | 9989 ft | 269 kts | 350° |
| 2026-05-07 15:49 | 40.95875 | -112.11684 | 9628 ft | 266 kts | 350° |
| 2026-05-07 15:49 | 40.97713 | -112.11911 | 9266 ft | 264 kts | 351° |
| 2026-05-07 15:50 | 40.99549 | -112.12135 | 8902 ft | 262 kts | 351° |
| 2026-05-07 15:50 | 41.01353 | -112.12356 | 8541 ft | 261 kts | 351° |
| 2026-05-07 15:50 | 41.03165 | -112.12577 | 8174 ft | 260 kts | 352° |
| 2026-05-07 15:50 | 41.04949 | -112.12794 | 7811 ft | 259 kts | 352° |
| 2026-05-07 15:51 | 41.06744 | -112.13014 | 7450 ft | 257 kts | 353° |
| 2026-05-07 15:51 | 41.08515 | -112.13222 | 7096 ft | 254 kts | 355° |
| 2026-05-07 15:51 | 41.10197 | -112.12875 | 6979 ft | 243 kts | 23° |
| 2026-05-07 15:51 | 41.11459 | -112.11517 | 6997 ft | 229 kts | 56° |
| 2026-05-07 15:52 | 41.11948 | -112.09553 | 6995 ft | 230 kts | 90° |
| 2026-05-07 15:52 | 41.11558 | -112.07533 | 6993 ft | 226 kts | 123° |
| 2026-05-07 15:52 | 41.10460 | -112.06113 | 6996 ft | 223 kts | 148° |
| 2026-05-07 15:52 | 41.09126 | -112.05032 | 6992 ft | 222 kts | 150° |
| 2026-05-07 15:53 | 41.07831 | -112.03931 | 6991 ft | 222 kts | 151° |
| 2026-05-07 15:53 | 41.06421 | -112.03103 | 6992 ft | 220 kts | 166° |
| 2026-05-07 15:53 | 41.04925 | -112.02743 | 6992 ft | 219 kts | 175° |
| 2026-05-07 15:53 | 41.03397 | -112.02548 | 6993 ft | 219 kts | 176° |
| 2026-05-07 15:54 | 41.01892 | -112.02382 | 6992 ft | 219 kts | 176° |
| 2026-05-07 15:54 | 41.00362 | -112.02206 | 6993 ft | 219 kts | 176° |
| 2026-05-07 15:54 | 40.98845 | -112.02026 | 6994 ft | 219 kts | 176° |
| 2026-05-07 15:54 | 40.97324 | -112.01847 | 6993 ft | 218 kts | 176° |
| 2026-05-07 15:55 | 40.95842 | -112.01675 | 6992 ft | 215 kts | 176° |
| 2026-05-07 15:55 | 40.94329 | -112.01499 | 6848 ft | 219 kts | 176° |
| 2026-05-07 15:55 | 40.92829 | -112.01324 | 6562 ft | 208 kts | 176° |
| 2026-05-07 15:55 | 40.91434 | -112.01160 | 6291 ft | 194 kts | 175° |
| 2026-05-07 15:56 | 40.90131 | -112.01010 | 6042 ft | 189 kts | 175° |
| 2026-05-07 15:56 | 40.88824 | -112.00861 | 5792 ft | 183 kts | 175° |
| 2026-05-07 15:56 | 40.87599 | -112.00717 | 5556 ft | 170 kts | 175° |
| 2026-05-07 15:56 | 40.86463 | -112.00588 | 5362 ft | 156 kts | 175° |
| 2026-05-07 15:57 | 40.85399 | -112.00463 | 5136 ft | 152 kts | 174° |
| 2026-05-07 15:57 | 40.84355 | -112.00344 | 4957 ft | 150 kts | 175° |
| 2026-05-07 15:57 | 40.83313 | -112.00228 | 4753 ft | 150 kts | 174° |
| 2026-05-07 15:57 | 40.82282 | -112.00106 | 4550 ft | 148 kts | 174° |
| 2026-05-07 15:58 | 40.81265 | -111.99987 | 4363 ft | 147 kts | 174° |
| 2026-05-07 15:58 | 40.80251 | -111.99867 | 4232 ft | 140 kts | 174° |
| 2026-05-07 15:58 | 40.79390 | -111.99766 | 4226 ft | 90 kts | 175° |
| 2026-05-07 15:58 | 40.78977 | -111.99713 | 4226 ft | 42 kts | 171° |
| 2026-05-07 15:59 | 40.78758 | -111.99593 | 4226 ft | 23 kts | 135° |
| 2026-05-07 15:59 | 40.78697 | -111.99501 | 4226 ft | 7 kts | 129° |
| 2026-05-07 15:59 | 40.78713 | -111.99438 | 4226 ft | 11 kts | 70° |
| 2026-05-07 15:59 | 40.78723 | -111.99303 | 4226 ft | 15 kts | 87° |
| 2026-05-07 16:00 | 40.78727 | -111.99164 | 4226 ft | 14 kts | 88° |
| 2026-05-07 16:00 | 40.78735 | -111.99030 | 4226 ft | 14 kts | 82° |
| 2026-05-07 16:00 | 40.78746 | -111.98899 | 4226 ft | 13 kts | 85° |
| 2026-05-07 16:00 | 40.78753 | -111.98778 | 4227 ft | 9 kts | 86° |
| 2026-05-07 16:01 | 40.78760 | -111.98724 | 4227 ft | 6 kts | 69° |
| 2026-05-07 16:01 | 40.78810 | -111.98709 | 4227 ft | 9 kts | 355° |
| 2026-05-07 16:01 | 40.78833 | -111.98712 | 4227 ft | 0 kts | 354° |